Time;durP1;ratioP1;P1;durP2;ratioP2;P2;SDS_P1;SDS_P2;PMS_P1;PMS_P2;Temp;Humidity;BMP_temperature;BMP_pressure;BME280_temperature;BME280_humidity;BME280_pressure;Samples;Min_cycle;Max_cycle;Signal;HPM_P1;HPM_P2
2020/12/11 00:04:14;;;;;;;74.17;36.43;;;;;;;2.84;69.09;98283.25;249664;1132;115424;-83
2020/12/11 00:09:16;;;;;;;75.47;34.43;;;;;;;2.79;69.45;98292.27;252224;1132;114625;-82
2020/12/11 00:14:19;;;;;;;75.47;36.70;;;;;;;2.74;69.14;98292.45;252018;1132;114622;-82
2020/12/11 00:19:21;;;;;;;75.30;36.73;;;;;;;2.72;69.16;98303.97;252115;1132;114948;-82
2020/12/11 00:24:25;;;;;;;75.87;37.33;;;;;;;2.69;69.09;98306.72;252113;1132;114579;-82
2020/12/11 00:29:28;;;;;;;83.60;38.70;;;;;;;2.63;69.05;98306.97;252204;1133;114803;-84
2020/12/11 00:34:31;;;;;;;80.53;39.83;;;;;;;2.67;69.15;98301.52;252321;1132;114514;-83
2020/12/11 00:39:35;;;;;;;74.22;37.33;;;;;;;2.71;69.27;98299.61;252098;1132;114936;-83
2020/12/11 00:44:38;;;;;;;73.53;37.50;;;;;;;2.71;69.12;98305.71;250206;1132;114819;-82
2020/12/11 00:49:42;;;;;;;73.25;37.28;;;;;;;2.68;69.30;98300.58;252158;1132;114535;-81
2020/12/11 00:54:46;;;;;;;76.15;37.67;;;;;;;2.66;69.10;98307.69;252072;1132;114724;-84
2020/12/11 00:59:48;;;;;;;79.50;37.37;;;;;;;2.59;69.09;98309.72;252057;1132;114805;-84
2020/12/11 01:04:50;;;;;;;76.90;37.97;;;;;;;2.57;69.37;98308.06;251972;1134;114736;-84
2020/12/11 01:09:53;;;;;;;75.45;37.55;;;;;;;2.56;69.00;98301.12;251811;1133;115013;-82
2020/12/11 01:14:55;;;;;;;74.40;34.43;;;;;;;2.59;69.40;98306.24;250502;1132;114545;-84
2020/12/11 01:19:57;;;;;;;80.35;34.10;;;;;;;2.59;69.33;98309.72;252136;1134;115077;-83
2020/12/11 01:25:00;;;;;;;73.37;33.40;;;;;;;2.63;69.54;98312.22;251414;1134;114542;-83
2020/12/11 01:30:05;;;;;;;78.75;34.75;;;;;;;2.69;69.46;98309.34;252112;1132;114915;-83
2020/12/11 01:35:07;;;;;;;76.95;34.60;;;;;;;2.73;69.51;98305.66;252032;1132;114694;-83
2020/12/11 01:40:09;;;;;;;92.97;40.00;;;;;;;2.80;69.56;98304.48;252006;1131;114697;-84
2020/12/11 01:45:12;;;;;;;90.70;39.85;;;;;;;2.81;69.54;98301.77;251959;1132;114853;-83
2020/12/11 01:50:19;;;;;;;92.23;40.83;;;;;;;2.80;69.11;98301.85;251947;1132;114697;-83
2020/12/11 01:55:21;;;;;;;98.35;42.27;;;;;;;2.77;69.45;98292.33;251977;1132;114911;-83
2020/12/11 02:00:25;;;;;;;88.52;41.60;;;;;;;2.72;69.21;98293.45;252079;1132;114656;-83
2020/12/11 02:05:27;;;;;;;93.83;41.20;;;;;;;2.66;69.35;98288.45;251679;1132;114839;-85
2020/12/11 02:10:30;;;;;;;88.87;40.38;;;;;;;2.61;69.39;98286.00;251946;1132;114703;-84
2020/12/11 02:15:33;;;;;;;100.97;44.50;;;;;;;2.63;69.44;98289.44;251489;1132;114760;-83
2020/12/11 02:20:35;;;;;;;89.17;41.07;;;;;;;2.64;69.32;98283.25;252057;1132;115184;-85
2020/12/11 02:25:42;;;;;;;92.80;42.75;;;;;;;2.65;69.31;98286.73;251956;1132;114897;-85
2020/12/11 02:30:44;;;;;;;83.83;39.23;;;;;;;2.64;69.23;98274.52;251908;1132;114498;-84
2020/12/11 02:35:47;;;;;;;88.92;37.38;;;;;;;2.56;68.99;98256.47;252126;1132;115133;-85
2020/12/11 02:40:55;;;;;;;91.90;37.10;;;;;;;2.50;69.16;98257.57;252082;1134;114680;-84
2020/12/11 02:45:57;;;;;;;97.00;40.45;;;;;;;2.45;69.13;98253.45;252173;1135;114714;-84
2020/12/11 02:51:00;;;;;;;83.33;36.77;;;;;;;2.39;69.27;98248.45;252099;1132;114793;-83
2020/12/11 02:56:02;;;;;;;93.93;38.50;;;;;;;2.37;69.34;98253.74;251709;1132;114997;-83
2020/12/11 03:01:05;;;;;;;101.63;41.63;;;;;;;2.33;69.41;98246.92;252029;1135;114734;-81
2020/12/11 03:06:08;;;;;;;92.63;40.50;;;;;;;2.33;69.24;98258.27;251976;1138;114942;-82
2020/12/11 03:11:13;;;;;;;102.58;42.30;;;;;;;2.38;69.77;98255.48;251799;1132;115503;-81
2020/12/11 03:16:19;;;;;;;93.03;40.50;;;;;;;2.38;69.43;98252.84;252116;1135;114926;-81
2020/12/11 03:21:21;;;;;;;92.57;40.07;;;;;;;2.34;69.30;98248.63;251994;1132;114716;-82
2020/12/11 03:26:24;;;;;;;83.40;38.45;;;;;;;2.30;69.40;98254.92;251957;1132;114814;-82
2020/12/11 03:31:26;;;;;;;90.80;37.93;;;;;;;2.20;69.05;98262.31;252020;1132;114729;-82
2020/12/11 03:36:29;;;;;;;86.23;38.87;;;;;;;2.09;69.11;98260.12;252000;1132;114697;-82
2020/12/11 03:41:31;;;;;;;83.80;38.08;;;;;;;2.05;69.10;98266.42;252079;1131;114593;-82
2020/12/11 03:46:34;;;;;;;79.93;37.37;;;;;;;2.02;69.30;98276.19;251745;1132;114667;-81
2020/12/11 03:51:37;;;;;;;85.67;38.05;;;;;;;2.01;69.87;98284.98;251383;1132;114958;-83
2020/12/11 03:56:39;;;;;;;76.87;36.40;;;;;;;1.96;69.26;98286.92;251865;1132;114649;-82
2020/12/11 04:01:42;;;;;;;78.67;37.03;;;;;;;1.88;69.21;98287.23;251883;1132;115179;-82
2020/12/11 04:06:44;;;;;;;81.53;36.43;;;;;;;1.82;69.30;98287.47;251923;1134;114981;-81
2020/12/11 04:11:47;;;;;;;78.30;37.42;;;;;;;1.74;69.18;98287.77;252059;1133;115027;-81
2020/12/11 04:16:49;;;;;;;92.10;40.60;;;;;;;1.72;69.37;98292.20;251982;1132;114707;-81
2020/12/11 04:21:53;;;;;;;94.97;41.93;;;;;;;1.71;68.98;98290.50;252028;1132;114954;-81
2020/12/11 04:26:56;;;;;;;95.07;43.50;;;;;;;1.73;69.88;98286.04;251979;1132;114757;-81
2020/12/11 04:32:00;;;;;;;102.35;42.67;;;;;;;1.75;70.16;98280.75;250421;1132;114410;-81
2020/12/11 04:37:02;;;;;;;95.30;43.30;;;;;;;1.75;69.70;98284.22;252112;1132;114860;-82
2020/12/11 04:42:05;;;;;;;101.80;45.03;;;;;;;1.78;70.07;98283.25;252084;1133;114944;-82
2020/12/11 04:47:07;;;;;;;107.17;48.17;;;;;;;1.81;70.00;98275.27;252115;1132;115506;-82
2020/12/11 04:52:12;;;;;;;110.97;47.98;;;;;;;1.84;70.18;98277.78;252005;1132;115144;-82
2020/12/11 04:57:22;;;;;;;103.20;46.83;;;;;;;1.89;70.03;98274.04;252019;1131;114917;-81
2020/12/11 05:02:28;;;;;;;111.47;47.43;;;;;;;1.94;70.03;98280.87;251998;1132;114887;-81
2020/12/11 05:07:30;;;;;;;108.30;45.75;;;;;;;1.97;70.10;98288.63;252158;1132;115089;-82
2020/12/11 05:12:34;;;;;;;95.70;43.40;;;;;;;1.95;70.11;98290.47;251941;1132;114881;-82
2020/12/11 05:17:41;;;;;;;111.10;45.38;;;;;;;1.93;69.79;98298.38;251979;1132;114648;-82
2020/12/11 05:22:44;;;;;;;108.78;46.53;;;;;;;1.92;70.40;98301.93;251817;1132;115352;-81
2020/12/11 05:27:47;;;;;;;105.93;44.97;;;;;;;1.92;69.93;98309.80;250873;1132;114926;-81
2020/12/11 05:32:54;;;;;;;103.80;45.43;;;;;;;1.95;69.99;98306.21;252012;1133;114860;-82
2020/12/11 05:38:04;;;;;;;98.40;44.55;;;;;;;1.93;69.63;98302.78;252010;1132;115129;-82
2020/12/11 05:43:20;;;;;;;94.55;43.60;;;;;;;1.91;69.80;98313.34;252010;1132;114695;-82
2020/12/11 05:48:45;;;;;;;100.40;45.03;;;;;;;1.85;69.94;98306.56;252059;1135;114734;-82
2020/12/11 05:53:56;;;;;;;98.45;44.35;;;;;;;1.81;69.97;98310.22;251940;1134;115130;-83
2020/12/11 05:58:59;;;;;;;96.20;42.75;;;;;;;1.84;69.93;98322.38;252003;1132;114940;-83
2020/12/11 06:04:03;;;;;;;88.00;41.83;;;;;;;1.82;69.68;98316.32;251938;1132;114739;-85
2020/12/11 06:09:09;;;;;;;95.62;41.83;;;;;;;1.80;70.04;98315.51;252055;1132;114853;-85
2020/12/11 06:14:27;;;;;;;93.85;41.25;;;;;;;1.78;69.45;98315.58;252031;1132;114493;-85
2020/12/11 06:19:32;;;;;;;90.70;41.73;;;;;;;1.78;70.06;98323.45;252099;1132;114822;-85
2020/12/11 06:24:35;;;;;;;;;;;;;;;1.77;70.11;98324.37;252103;1132;114586;-85
2020/12/11 06:29:41;;;;;;;88.27;39.40;;;;;;;1.75;70.29;98320.09;252169;1132;102944;-85
2020/12/11 06:34:43;;;;;;;83.90;37.83;;;;;;;1.70;69.53;98315.03;252073;1132;114667;-84
2020/12/11 06:39:46;;;;;;;71.92;34.08;;;;;;;1.65;69.28;98328.30;252037;1132;114705;-84
2020/12/11 06:44:49;;;;;;;74.30;34.20;;;;;;;1.61;69.64;98341.59;251840;1132;114560;-84
2020/12/11 06:50:10;;;;;;;76.37;34.23;;;;;;;1.57;69.87;98348.72;251768;1132;114785;-84
2020/12/11 06:55:13;;;;;;;76.83;34.60;;;;;;;1.53;69.29;98346.25;252071;1132;114563;-85
2020/12/11 07:00:26;;;;;;;78.47;35.08;;;;;;;1.49;70.34;98335.02;251984;1133;114775;-85
2020/12/11 07:05:28;;;;;;;75.45;33.90;;;;;;;1.49;70.17;98331.55;252181;1132;114734;-83
2020/12/11 07:10:31;;;;;;;76.90;36.93;;;;;;;1.50;69.88;98339.37;251330;1132;114762;-82
2020/12/11 07:15:34;;;;;;;71.60;35.52;;;;;;;1.54;69.74;98327.85;251994;1135;114579;-82
2020/12/11 07:20:36;;;;;;;74.60;35.97;;;;;;;1.56;70.13;98327.78;252122;1132;114954;-82
2020/12/11 07:25:39;;;;;;;79.90;36.17;;;;;;;1.58;69.95;98316.33;252044;1132;114606;-82
2020/12/11 07:30:45;;;;;;;69.95;33.92;;;;;;;1.58;69.85;98318.11;252047;1132;114761;-83
2020/12/11 07:35:50;;;;;;;78.93;35.40;;;;;;;1.58;69.64;98320.73;251959;1132;114845;-81
2020/12/11 07:40:57;;;;;;;78.95;36.08;;;;;;;1.55;69.46;98321.69;252066;1135;115024;-80
2020/12/11 07:46:00;;;;;;;87.13;39.60;;;;;;;1.53;70.30;98310.42;250217;1132;114853;-82
2020/12/11 07:51:03;;;;;;;83.67;37.50;;;;;;;1.56;69.77;98318.17;252110;1132;115216;-81
2020/12/11 07:56:09;;;;;;;84.28;40.25;;;;;;;1.56;70.15;98302.44;252046;1133;114709;-81
